• Join FlightAware (Why Join?)
  • Login
  • US Flag 
07:30PM EST


 

Airport Tracker/Info


-or-


 

Live Flight TrackerFlight Track Log ✈ GJS3706 ✈ 17-May-2013 ✈ KPWM - KORD

Flight Track Log - Related Links

Times and Time Zones

All times are in EDT time to prevent confusion due to time zone crossing. See the GJS3706 flight status page for this flight to view local times or setup timezone preferences in your user account.

Time Position Orientation Groundspeed Altitude Reporting Facility
EDT Latitude Longitude Course Direction KTS MPH feet Rate Location/Type
08:03AM 43.6706 -70.5428 264° West 235 270 5,700  Level Boston Center
08:05AM 43.6953 -70.6597 286° West 272 313 9,400 2,400 Climbing Boston Center
08:06AM 43.7133 -70.7539 285° West 278 320 11,100 1,800 Climbing Boston Center
08:07AM 43.7006 -70.8808 262° West 308 354 13,000 1,800 Climbing Boston Center
08:08AM 43.7281 -70.6521 264° West  Level FlightAware Approximate
08:08AM 43.6689 -70.9936 249° West 339 390 14,700  Level Boston Center
08:09AM 43.7179 -70.7841 264° West  Level FlightAware Approximate
08:09AM 43.6392 -71.1375 254° West 355 409 16,600  Level Boston Center
08:10AM 43.6136 -71.2700 255° West 360 414 18,300 1,680 Climbing Boston Center
08:11AM 43.5919 -71.3908 256° West 360 414 20,000 1,740 Climbing Boston Center
08:12AM 43.5681 -71.5231 256° West 360 414 21,800 1,800 Climbing Boston Center
08:13AM 43.5439 -71.6553 256° West 360 414 23,600 1,860 Climbing Boston Center
08:14AM 43.5197 -71.7844 256° West 355 409 25,600 1,800 Climbing Boston Center
08:15AM 43.4975 -71.9050 256° West 345 397 27,300 1,320 Climbing Boston Center
08:16AM 43.4750 -72.0308 256° West 340 391 28,300 900 Climbing Boston Center
08:17AM 43.4503 -72.1569 255° West 335 386 29,200 840 Climbing Boston Center
08:18AM 43.4256 -72.2886 256° West 340 391 30,000 780 Climbing Boston Center
08:19AM 43.4028 -72.4172 256° West 340 391 30,800 780 Climbing Boston Center
08:20AM 43.3861 -72.5517 260° West 350 403 31,600 780 Climbing Boston Center
08:21AM 43.3817 -72.6828 267° West 355 409 32,400 780 Climbing Boston Center
08:22AM 43.3731 -72.8172 265° West 355 409 33,200 780 Climbing Boston Center
08:23AM 43.3683 -72.9542 267° West 355 409 34,000 780 Climbing Boston Center
08:24AM 43.3594 -73.0883 265° West 355 409 34,800 780 Climbing Boston Center
08:25AM 43.3544 -73.2167 267° West 350 403 35,600 600 Climbing Boston Center
08:26AM 43.3472 -73.3481 266° West 350 403 36,000 180 Climbing Boston Center
08:27AM 43.3356 -73.4933 264° West 350 403 36,000  Level Boston Center
08:28AM 43.3278 -73.6303 266° West 355 409 36,000  Level Boston Center
08:29AM 43.3203 -73.7586 265° West 361 415 36,000  Level Boston Center
08:30AM 43.3144 -73.8983 267° West 371 427 36,000  Level Boston Center
08:31AM 43.3061 -74.0408 265° West 371 427 36,000  Level Boston Center
08:32AM 43.2978 -74.1803 265° West 371 427 36,000  Level Boston Center
08:33AM 43.2894 -74.3228 265° West 376 433 36,000  Level Boston Center
08:34AM 43.2806 -74.4678 265° West 381 438 36,000  Level Boston Center
08:35AM 43.2717 -74.6131 265° West 381 438 36,000  Level Boston Center
08:36AM 43.2628 -74.7553 265° West 386 444 36,000  Level Boston Center
08:37AM 43.2533 -74.9003 265° West 386 444 36,000  Level Boston Center
08:38AM 43.2439 -75.0453 265° West 386 444 36,000  Level Boston Center
08:39AM 43.2339 -75.2075 265° West 386 444 36,000  Level Boston Center
08:40AM 43.2200 -75.3492 262° West 386 444 36,000  Level Boston Center
08:41AM 43.2119 -75.4914 266° West 386 444 36,000  Level Boston Center
08:42AM 43.2019 -75.6333 265° West 386 444 36,000  Level Boston Center
08:43AM 43.1936 -75.7725 265° West 381 438 36,000  Level Boston Center
08:45AM 43.1719 -76.0508 264° West 373 429 36,000  Level Cleveland Center
08:46AM 43.1625 -76.1908 265° West 373 429 36,000  Level Cleveland Center
08:47AM 43.1617 -76.3306 270° West 373 429 36,000  Level Cleveland Center
08:48AM 43.1603 -76.4672 269° West 367 422 36,000  Level Cleveland Center
08:49AM 43.1608 -76.6039 270° West 367 422 36,000  Level Cleveland Center
08:50AM 43.1586 -76.7236 269° West 359 413 36,000  Level Cleveland Center
08:51AM 43.1592 -76.8631 270° West 364 419 36,000  Level Cleveland Center
08:52AM 43.1572 -77.0028 269° West 364 419 36,000  Level Cleveland Center
08:53AM 43.1572 -77.1394 270° West 364 419 36,000  Level Cleveland Center
08:54AM 43.1569 -77.2761 270° West 364 419 36,000  Level Cleveland Center
08:55AM 43.1547 -77.4186 269° West 364 419 36,000  Level Cleveland Center
08:56AM 43.1522 -77.5553 269° West 364 419 36,000  Level Cleveland Center
08:57AM 43.1517 -77.6947 270° West 364 419 36,000  Level Cleveland Center
08:58AM 43.1508 -77.8342 270° West 369 425 36,000  Level Cleveland Center
08:59AM 43.1478 -77.9767 268° West 369 425 36,000  Level Cleveland Center
09:00AM 43.1467 -78.1161 269° West 369 425 36,000  Level Cleveland Center
09:01AM 43.1433 -78.2586 268° West 369 425 36,000  Level Cleveland Center
09:02AM 43.1419 -78.4008 269° West 369 425 36,000  Level Cleveland Center
09:03AM 43.1383 -78.5406 268° West 374 430 36,000  Level Cleveland Center
09:04AM 43.1344 -78.6828 268° West 374 430 36,000  Level Cleveland Center
09:05AM 43.1303 -78.8222 268° West 374 430 36,000  Level Cleveland Center
09:05AM 43.1167 -78.8833 253° West 380 437 36,000  Level Toronto Center
09:06AM 43.1167 -79.0333 270° West 380 437 36,000  Level Toronto Center
09:07AM 43.1167 -79.1833 270° West 380 437 36,000  Level Toronto Center
09:08AM 43.1000 -79.3167 260° West 380 437 36,000  Level Toronto Center
09:09AM 43.1000 -79.4500 270° West 380 437 36,000  Level Toronto Center
09:10AM 43.1000 -79.5833 270° West 380 437 36,000  Level Toronto Center
09:11AM 43.0833 -79.7500 262° West 380 437 36,000  Level Toronto Center
09:12AM 43.0833 -79.8833 270° West 380 437 36,000  Level Toronto Center
09:13AM 43.0833 -80.0500 270° West 380 437 36,000  Level Toronto Center
09:14AM 43.0667 -80.1833 260° West 380 437 36,000  Level Toronto Center
09:15AM 43.0667 -80.3167 270° West 380 437 36,000  Level Toronto Center
09:16AM 43.0667 -80.4500 270° West 380 437 36,000  Level Toronto Center
09:17AM 43.0500 -80.6167 262° West 380 437 36,000  Level Toronto Center
09:18AM 43.0500 -80.7500 270° West 380 437 36,000  Level Toronto Center
09:19AM 43.0333 -80.9167 262° West 380 437 36,000  Level Toronto Center
09:20AM 43.0167 -81.0500 260° West 380 437 36,000  Level Toronto Center
09:21AM 43.0167 -81.1833 270° West 380 437 36,000  Level Toronto Center
09:22AM 43.0167 -81.3167 270° West 370 426 36,000  Level Toronto Center
09:23AM 43.0167 -81.4500 270° West 370 426 36,000  Level Toronto Center
09:24AM 43.0167 -81.6167 270° West 380 437 36,000  Level Toronto Center
09:25AM 43.0167 -81.7500 270° West 380 437 36,000  Level Toronto Center
09:26AM 43.0167 -81.8833 270° West 370 426 36,000  Level Toronto Center
09:27AM 43.0000 -82.0500 262° West 380 437 36,000  Level Toronto Center
09:28AM 43.0000 -82.1833 270° West 380 437 36,000  Level Toronto Center
09:29AM 43.0000 -82.3167 270° West 380 437 36,000  Level Toronto Center
09:30AM 43.0000 -82.4833 270° West 380 437 36,000  Level Toronto Center
09:31AM 43.0000 -82.6167 270° West 380 437 36,000  Level Toronto Center
09:32AM 42.9833 -82.7500 260° West 380 437 36,000 -60 Level Toronto Center
09:33AM 42.9667 -82.9167 262° West 380 437 35,900 -780 Descending Toronto Center
09:34AM 42.9667 -83.0500 270° West 380 437 34,500 -1,500 Descending Toronto Center
09:35AM 42.9500 -83.2167 262° West 390 449 33,000 -1,260 Descending Toronto Center
09:36AM 42.9500 -83.3500 270° West 390 449 32,000 -540 Descending Toronto Center
09:37AM 42.9500 -83.5000 270° West 390 449 32,000  Level Toronto Center
09:38AM 42.9333 -83.6333 260° West 390 449 32,000  Level Toronto Center
09:39AM 42.9167 -83.7833 261° West 400 460 32,000  Level Toronto Center
09:40AM 42.9167 -83.9333 270° West 400 460 32,000  Level Toronto Center
09:41AM 42.9167 -84.1000 270° West 400 460 32,000  Level Toronto Center
09:42AM 42.8833 -84.2500 253° West 400 460 32,000  Level Toronto Center
09:43AM 42.8833 -84.3833 270° West 400 460 32,000  Level Toronto Center
09:44AM 42.8667 -84.5500 262° West 400 460 32,000  Level Toronto Center
09:45AM 42.8667 -84.7000 270° West 400 460 32,000  Level Toronto Center
09:46AM 42.8500 -84.8333 260° West 400 460 32,000  Level Toronto Center
09:47AM 42.8167 -85.0000 255° West 400 460 32,000  Level Toronto Center
09:48AM 42.8242 -85.1531 274° West 407 468 32,000  Level Chicago Center
09:49AM 42.8078 -85.3042 262° West 407 468 32,000 -840 Level Chicago Center
09:50AM 42.7886 -85.4856 262° West 407 468 30,300 -1,800 Descending Chicago Center
09:51AM 42.7614 -85.6381 256° West 416 479 28,300 -1,980 Descending Chicago Center
09:52AM 42.7353 -85.7883 257° West 413 475 26,300 -1,980 Descending Chicago Center
09:53AM 42.7083 -85.9356 256° West 407 468 24,300 -1,980 Descending Chicago Center
09:54AM 42.6814 -86.0819 256° West 403 464 22,300 -1,980 Descending Chicago Center
09:55AM 42.6544 -86.2231 255° West 392 451 20,300 -1,140 Descending Chicago Center
09:57AM 42.6247 -86.3872 256° West 376 433 20,000 -1,080 Descending Chicago Center
09:58AM 42.5989 -86.5250 256° West 380 437 18,100 -1,800 Descending Chicago Center
09:59AM 42.5747 -86.6494 255° West 352 405 16,300 -1,800 Descending Chicago Center
10:00AM 42.5483 -86.7675 253° West 337 388 14,400 -1,800 Descending Chicago Center
10:01AM 42.5172 -86.8842 250° West 332 382 12,600 -2,040 Descending Chicago Center
10:02AM 42.4794 -87.0217 250° West 327 376 10,300 -1,260 Descending Chicago Center
10:03AM 42.4486 -87.1369 250° West 327 376 10,000 -540 Descending Chicago Center
10:04AM 42.4203 -87.2389 249° West 295 339 9,200 -540 Descending Chicago Center
10:05AM 42.3917 -87.3325 248° West 272 313 9,000 -300 Descending Chicago Center
10:06AM 42.3508 -87.4206 238° Southwest 277 319 8,700 -960 Descending Chicago Center
10:07AM 42.3064 -87.5211 239° Southwest 263 303 7,100 -840 Descending Chicago Center
10:08AM 42.2647 -87.6028 235° Southwest 269 310 7,000 -360 Descending Chicago Center
10:09AM 42.2072 -87.6622 217° Southwest 265 305 6,400 -1,200 Descending Chicago Center
10:10AM 42.1519 -87.7231 219° Southwest 260 299 4,600 -1,440 Descending Chicago Center
10:11AM 42.1069 -87.7775 222° Southwest 235 270 3,500 -1,080 Descending Chicago Center
10:12AM 42.0667 -87.8167 216° Southwest 172 198 2,600 -1,080 Descending Chicago TRACON
10:13AM 42.0333 -87.8500 217° Southwest 154 177 1,600 -900 Descending Chicago TRACON
10:14AM 42.0000 -87.8833 217° Southwest 145 167 900 -720 Descending Chicago TRACON
10:16AM 41.9817 -87.9067 206° Southwest  Level Estimated